createdAt,value
2018-02-10T00:01:07.789Z,20.80
2018-02-10T00:03:36.207Z,21.07
2018-02-10T00:06:03.853Z,21.58
2018-02-10T00:08:31.451Z,20.48
2018-02-10T00:10:59.087Z,20.92
2018-02-10T00:13:26.749Z,21.05
2018-02-10T00:15:54.419Z,20.02
2018-02-10T00:18:22.124Z,20.95
2018-02-10T00:20:49.815Z,20.25
2018-02-10T00:23:17.447Z,20.45
2018-02-10T00:25:45.970Z,19.92
2018-02-10T00:28:13.629Z,20.80
2018-02-10T00:30:41.265Z,20.67
2018-02-10T00:33:09.216Z,20.58
2018-02-10T00:35:36.868Z,20.73
2018-02-10T00:38:05.290Z,20.80
2018-02-10T00:40:32.955Z,20.45
2018-02-10T00:43:00.571Z,20.40
2018-02-10T00:45:28.995Z,21.10
2018-02-10T00:47:56.628Z,20.27
2018-02-10T00:50:24.988Z,20.85
2018-02-10T00:52:52.774Z,20.50
2018-02-10T00:55:21.185Z,22.58
2018-02-10T00:57:48.837Z,19.58
2018-02-10T01:00:17.230Z,20.45
2018-02-10T01:02:44.887Z,20.60
2018-02-10T01:05:13.288Z,21.37
2018-02-10T01:07:40.903Z,21.62
2018-02-10T01:10:08.551Z,22.27
2018-02-10T01:12:36.154Z,22.37
2018-02-10T01:15:03.812Z,20.25
2018-02-10T01:17:31.458Z,21.95
2018-02-10T01:19:59.065Z,21.42
2018-02-10T01:22:27.525Z,21.52
2018-02-10T01:24:55.152Z,21.85
2018-02-10T01:27:22.806Z,22.00
2018-02-10T01:29:50.438Z,23.10
2018-02-10T01:32:18.884Z,21.60
2018-02-10T01:34:46.498Z,21.55
2018-02-10T01:37:14.881Z,22.52
2018-02-10T01:39:43.291Z,20.60
2018-02-10T01:42:10.961Z,22.80
2018-02-10T01:44:38.586Z,21.92
2018-02-10T01:47:06.985Z,22.13
2018-02-10T01:49:35.406Z,22.77
2018-02-10T01:52:03.143Z,23.53
2018-02-10T01:54:30.788Z,22.03
2018-02-10T01:56:59.210Z,22.37
2018-02-10T01:59:26.873Z,22.50
2018-02-10T02:01:54.521Z,22.85
2018-02-10T02:04:22.151Z,21.08
2018-02-10T02:06:49.791Z,22.92
2018-02-10T02:09:17.422Z,21.98
2018-02-10T02:11:45.066Z,23.08
2018-02-10T02:14:12.704Z,20.92
2018-02-10T02:16:40.329Z,21.27
2018-02-10T02:19:07.937Z,22.65
2018-02-10T02:21:38.498Z,22.58
2018-02-10T02:24:06.123Z,22.47
2018-02-10T02:26:33.776Z,21.98
2018-02-10T02:29:01.412Z,23.38
2018-02-10T02:31:29.828Z,21.20
2018-02-10T02:33:58.215Z,22.70
2018-02-10T02:36:25.857Z,21.83
2018-02-10T02:38:54.255Z,21.62
2018-02-10T02:41:21.911Z,23.62
2018-02-10T02:43:49.555Z,21.15
2018-02-10T02:46:17.184Z,23.20
2018-02-10T02:48:44.800Z,23.50
2018-02-10T02:51:12.433Z,23.20
2018-02-10T02:53:40.225Z,23.48
2018-02-10T02:56:07.837Z,22.20
2018-02-10T02:58:35.488Z,23.35
2018-02-10T03:01:03.158Z,21.52
2018-02-10T03:03:31.054Z,22.48
2018-02-10T03:05:58.710Z,21.87
2018-02-10T03:08:26.373Z,22.30
2018-02-10T03:10:54.009Z,21.42
2018-02-10T03:13:22.416Z,23.60
2018-02-10T03:15:50.045Z,23.15
2018-02-10T03:18:17.671Z,22.62
2018-02-10T03:20:45.312Z,21.95
2018-02-10T03:23:12.930Z,21.80
2018-02-10T03:25:40.585Z,21.65
2018-02-10T03:28:08.211Z,21.25
2018-02-10T03:30:35.859Z,22.42
2018-02-10T03:33:03.506Z,23.83
2018-02-10T03:35:31.931Z,22.45
2018-02-10T03:37:59.562Z,23.40
2018-02-10T03:40:27.190Z,23.08
2018-02-10T03:42:54.832Z,22.70
2018-02-10T03:45:22.513Z,22.73
2018-02-10T03:47:50.106Z,22.23
2018-02-10T03:50:17.744Z,22.15
2018-02-10T03:52:45.435Z,22.48
2018-02-10T03:55:13.047Z,23.40
2018-02-10T03:57:41.771Z,22.83
2018-02-10T04:00:09.396Z,23.58
2018-02-10T04:02:37.755Z,22.48
2018-02-10T04:05:05.534Z,22.73
2018-02-10T04:07:33.189Z,23.17
2018-02-10T04:10:00.799Z,21.40
2018-02-10T04:12:28.455Z,22.60
2018-02-10T04:14:56.823Z,22.75
2018-02-10T04:17:25.216Z,23.23
2018-02-10T04:19:53.651Z,22.23
2018-02-10T04:22:22.095Z,23.35
2018-02-10T04:24:49.734Z,21.50
2018-02-10T04:27:17.634Z,22.42
2018-02-10T04:29:45.256Z,22.13
2018-02-10T04:32:13.068Z,23.38
2018-02-10T04:34:41.443Z,22.50
2018-02-10T04:37:09.862Z,23.02
2018-02-10T04:39:37.516Z,23.62
2018-02-10T04:42:05.133Z,23.33
2018-02-10T04:44:32.763Z,22.95
2018-02-10T04:47:00.422Z,22.58
2018-02-10T04:49:28.104Z,23.77
2018-02-10T04:51:55.787Z,24.52
2018-02-10T04:54:23.422Z,22.37
2018-02-10T04:56:51.051Z,22.98
2018-02-10T04:59:18.727Z,23.38
2018-02-10T05:01:47.137Z,23.02
2018-02-10T05:04:14.761Z,23.73
2018-02-10T05:06:42.433Z,23.12
2018-02-10T05:09:11.620Z,23.42
2018-02-10T05:11:39.362Z,24.27
2018-02-10T05:14:07.029Z,23.67
2018-02-10T05:16:34.813Z,23.40
2018-02-10T05:19:02.434Z,23.87
2018-02-10T05:21:30.116Z,22.85
2018-02-10T05:23:58.097Z,23.85
2018-02-10T05:26:25.740Z,23.58
2018-02-10T05:28:53.391Z,23.40
2018-02-10T05:31:21.797Z,24.50
2018-02-10T05:33:49.446Z,23.65
2018-02-10T05:36:17.844Z,23.80
2018-02-10T05:38:45.466Z,23.00
2018-02-10T05:41:13.622Z,24.12
2018-02-10T05:43:41.273Z,22.10
2018-02-10T05:46:09.737Z,23.10
2018-02-10T05:48:37.369Z,23.98
2018-02-10T05:51:05.024Z,24.77
2018-02-10T05:53:32.679Z,24.40
2018-02-10T05:56:00.286Z,23.62
2018-02-10T05:58:28.683Z,23.92
2018-02-10T06:00:56.416Z,23.52
2018-02-10T06:03:24.043Z,23.80
2018-02-10T06:05:51.707Z,24.87
2018-02-10T06:08:19.353Z,23.90
2018-02-10T06:10:47.010Z,24.35
2018-02-10T06:13:15.724Z,24.05
2018-02-10T06:15:43.393Z,24.85
2018-02-10T06:18:11.020Z,23.87
2018-02-10T06:20:39.422Z,23.25
2018-02-10T06:23:07.845Z,22.80
2018-02-10T06:25:35.472Z,22.80
2018-02-10T06:28:03.910Z,23.98
2018-02-10T06:30:31.552Z,22.73
2018-02-10T06:32:59.211Z,23.77
2018-02-10T06:35:26.842Z,23.90
2018-02-10T06:37:55.237Z,24.48
2018-02-10T06:40:23.697Z,24.33
2018-02-10T06:42:51.323Z,24.23
2018-02-10T06:45:18.967Z,24.15
2018-02-10T06:47:46.708Z,24.08
2018-02-10T06:50:14.359Z,25.20
2018-02-10T06:52:41.996Z,23.83
2018-02-10T06:55:09.786Z,23.35
2018-02-10T06:57:37.501Z,23.58
2018-02-10T07:00:05.119Z,22.40
2018-02-10T07:02:32.772Z,23.38
2018-02-10T07:05:00.374Z,23.00
2018-02-10T07:07:28.809Z,23.75
2018-02-10T07:09:56.769Z,23.13
2018-02-10T07:12:24.406Z,23.90
2018-02-10T07:14:52.797Z,23.30
2018-02-10T07:17:20.508Z,22.70
2018-02-10T07:19:48.115Z,21.97
2018-02-10T07:22:16.691Z,21.73
2018-02-10T07:24:44.330Z,22.20
2018-02-10T07:27:12.074Z,22.85
2018-02-10T07:29:39.689Z,24.25
2018-02-10T07:32:07.347Z,22.83
2018-02-10T07:34:35.008Z,22.60
2018-02-10T07:37:02.632Z,22.42
2018-02-10T07:39:30.294Z,21.77
2018-02-10T07:41:57.925Z,22.85
2018-02-10T07:44:25.584Z,21.65
2018-02-10T07:46:54.191Z,22.15
2018-02-10T07:49:21.819Z,23.33
2018-02-10T07:51:49.465Z,22.73
2018-02-10T07:54:17.118Z,22.43
2018-02-10T07:56:44.762Z,23.27
2018-02-10T07:59:12.397Z,22.60
2018-02-10T08:01:40.105Z,22.80
2018-02-10T08:04:08.529Z,22.23
2018-02-10T08:06:36.227Z,21.42
2018-02-10T08:09:03.842Z,20.80
2018-02-10T08:11:31.549Z,22.17
2018-02-10T08:13:59.479Z,21.60
2018-02-10T08:16:27.108Z,21.70
2018-02-10T08:18:54.754Z,20.92
2018-02-10T08:21:22.416Z,21.55
2018-02-10T08:23:50.057Z,21.33
2018-02-10T08:26:17.823Z,21.20
2018-02-10T08:28:45.464Z,21.48
2018-02-10T08:31:14.128Z,21.80
2018-02-10T08:33:41.782Z,20.83
2018-02-10T08:36:09.431Z,21.48
2018-02-10T08:38:37.250Z,21.17
2018-02-10T08:41:06.758Z,20.98
2018-02-10T08:43:35.171Z,20.67
2018-02-10T08:46:03.168Z,21.15
2018-02-10T08:48:30.802Z,20.62
2018-02-10T08:50:59.201Z,21.80
2018-02-10T08:53:26.867Z,20.15
2018-02-10T08:55:54.508Z,21.33
2018-02-10T08:58:22.186Z,21.02
2018-02-10T09:00:50.579Z,20.10
2018-02-10T09:03:18.246Z,20.95
2018-02-10T09:05:45.872Z,20.15
2018-02-10T09:08:13.545Z,21.15
2018-02-10T09:10:41.224Z,19.60
2018-02-10T09:13:08.957Z,21.52
2018-02-10T09:15:37.435Z,20.67
2018-02-10T09:18:05.426Z,20.43
2018-02-10T09:20:33.757Z,20.50
2018-02-10T09:23:01.549Z,19.62
2018-02-10T09:25:29.211Z,20.80
2018-02-10T09:27:56.908Z,20.75
2018-02-10T09:30:24.576Z,20.75
2018-02-10T09:32:52.345Z,20.37
2018-02-10T09:35:20.020Z,19.95
2018-02-10T09:37:47.742Z,19.87
2018-02-10T09:40:15.406Z,19.50
2018-02-10T09:42:43.022Z,19.98
2018-02-10T09:45:10.684Z,20.12
2018-02-10T09:47:38.309Z,19.77
2018-02-10T09:50:06.009Z,19.50
2018-02-10T09:52:33.644Z,19.92
2018-02-10T09:55:01.385Z,19.83
2018-02-10T09:57:29.049Z,20.85
2018-02-10T09:59:57.466Z,19.85
2018-02-10T10:02:25.126Z,20.13
2018-02-10T10:04:52.829Z,20.60
2018-02-10T10:07:20.509Z,20.95
2018-02-10T10:09:48.331Z,20.08
2018-02-10T10:12:15.971Z,21.00
2018-02-10T10:14:43.641Z,20.48
2018-02-10T10:17:11.360Z,21.25
2018-02-10T10:19:39.013Z,19.80
2018-02-10T10:22:06.650Z,19.87
2018-02-10T10:24:35.058Z,20.88
2018-02-10T10:27:03.552Z,20.25
2018-02-10T10:29:31.756Z,20.08
2018-02-10T10:31:59.388Z,19.35
2018-02-10T10:34:27.039Z,20.20
2018-02-10T10:36:55.009Z,20.50
2018-02-10T10:39:23.452Z,20.10
2018-02-10T10:41:51.094Z,20.80
2018-02-10T10:44:19.031Z,20.17
2018-02-10T10:46:46.680Z,20.77
2018-02-10T10:49:14.314Z,20.42
2018-02-10T10:51:41.996Z,18.90
2018-02-10T10:54:09.664Z,19.42
2018-02-10T10:56:37.356Z,19.23
2018-02-10T10:59:05.934Z,18.67
2018-02-10T11:01:33.555Z,19.35
2018-02-10T11:04:01.207Z,18.87
2018-02-10T11:06:28.894Z,20.37
2018-02-10T11:08:56.605Z,19.90
2018-02-10T11:11:24.252Z,19.33
2018-02-10T11:13:51.888Z,19.50
2018-02-10T11:16:19.646Z,18.40
2018-02-10T11:18:47.300Z,18.40
2018-02-10T11:21:14.938Z,18.77
2018-02-10T11:23:43.345Z,17.47
2018-02-10T11:26:11.890Z,19.12
2018-02-10T11:28:39.763Z,17.80
2018-02-10T11:31:07.442Z,17.92
2018-02-10T11:33:35.058Z,18.48
2018-02-10T11:36:02.713Z,18.52
2018-02-10T11:38:30.437Z,18.25
2018-02-10T11:40:58.132Z,17.77
2018-02-10T11:43:25.758Z,17.87
2018-02-10T11:45:53.418Z,16.90
2018-02-10T11:48:21.063Z,17.90
2018-02-10T11:50:48.693Z,17.37
2018-02-10T11:53:17.095Z,16.92
2018-02-10T11:55:44.742Z,16.62
2018-02-10T11:58:12.374Z,17.05
2018-02-10T12:00:40.034Z,15.82
2018-02-10T12:03:07.740Z,16.83
2018-02-10T12:05:35.461Z,16.60
2018-02-10T12:08:03.450Z,16.05
2018-02-10T12:10:31.158Z,16.05
2018-02-10T12:12:59.627Z,15.88
2018-02-10T12:15:28.075Z,14.83
2018-02-10T12:17:55.712Z,14.25
2018-02-10T12:20:23.435Z,15.20
2018-02-10T12:22:51.128Z,14.68
2018-02-10T12:25:18.928Z,15.05
2018-02-10T12:27:46.598Z,13.82
2018-02-10T12:30:14.257Z,12.77
2018-02-10T12:32:41.897Z,13.27
2018-02-10T12:35:10.352Z,13.52
2018-02-10T12:37:38.012Z,13.98
2018-02-10T12:40:05.767Z,14.00
2018-02-10T12:42:33.555Z,14.05
2018-02-10T12:45:01.371Z,13.57
2018-02-10T12:47:29.072Z,13.27
2018-02-10T12:49:56.727Z,14.27
2018-02-10T12:52:24.822Z,13.23
2018-02-10T12:54:52.933Z,13.90
2018-02-10T12:57:20.637Z,12.63
2018-02-10T12:59:48.366Z,12.57
2018-02-10T13:02:17.233Z,12.85
2018-02-10T13:04:45.062Z,13.18
2018-02-10T13:07:12.953Z,13.05
2018-02-10T13:09:40.730Z,13.13
2018-02-10T13:12:08.932Z,13.23
2018-02-10T13:17:39.530Z,11.57
2018-02-10T13:20:07.407Z,12.80
2018-02-10T13:22:35.520Z,13.02
2018-02-10T13:25:03.330Z,12.45
2018-02-10T13:27:31.152Z,12.27
2018-02-10T13:30:00.865Z,12.57
2018-02-10T13:32:29.956Z,12.37
2018-02-10T13:34:58.131Z,12.02
2018-02-10T13:37:26.918Z,12.93
2018-02-10T13:39:55.724Z,13.00
2018-02-10T13:42:24.831Z,13.65
2018-02-10T13:44:53.750Z,12.95
2018-02-10T13:47:22.002Z,12.45
2018-02-10T13:49:50.156Z,13.70
2018-02-10T13:52:18.753Z,13.62
2018-02-10T13:54:47.886Z,13.88
2018-02-10T13:57:16.839Z,13.43
2018-02-10T13:59:45.167Z,13.90
2018-02-10T14:02:15.241Z,14.18
2018-02-10T14:04:43.127Z,14.45
2018-02-10T14:07:10.810Z,14.02
2018-02-10T14:09:39.221Z,14.93
2018-02-10T14:12:06.984Z,14.20
2018-02-10T14:14:34.801Z,14.85
2018-02-10T14:17:02.594Z,14.60
2018-02-10T14:19:30.215Z,14.02
2018-02-10T14:21:57.904Z,14.95
2018-02-10T14:24:25.567Z,15.05
2018-02-10T14:26:54.085Z,14.80
2018-02-10T14:29:21.711Z,14.13
2018-02-10T14:31:49.474Z,14.18
2018-02-10T14:34:17.156Z,15.85
2018-02-10T14:36:44.844Z,14.50
2018-02-10T14:39:12.490Z,14.95
2018-02-10T14:41:40.173Z,14.18
2018-02-10T14:44:08.656Z,14.48
2018-02-10T14:46:37.180Z,15.25
2018-02-10T14:49:05.677Z,15.15
2018-02-10T14:51:33.332Z,15.23
2018-02-10T14:54:00.999Z,14.87
2018-02-10T14:56:28.688Z,14.30
2018-02-10T14:58:56.287Z,14.68
2018-02-10T15:01:24.648Z,15.05
2018-02-10T15:03:52.333Z,14.68
2018-02-10T15:06:19.949Z,13.80
2018-02-10T15:08:47.608Z,14.23
2018-02-10T15:11:15.234Z,14.90
2018-02-10T15:13:42.917Z,14.95
2018-02-10T15:16:11.327Z,15.73
2018-02-10T15:18:38.991Z,14.45
2018-02-10T15:21:06.658Z,14.93
2018-02-10T15:23:34.428Z,15.00
2018-02-10T15:26:02.200Z,14.43
2018-02-10T15:28:29.941Z,15.18
2018-02-10T15:31:09.800Z,14.25
2018-02-10T15:33:49.367Z,15.43
2018-02-10T15:36:17.015Z,15.18
2018-02-10T15:38:44.671Z,14.57
2018-02-10T15:41:12.430Z,15.27
2018-02-10T15:43:40.145Z,14.75
2018-02-10T15:46:07.897Z,14.77
2018-02-10T15:48:35.509Z,13.90
2018-02-10T15:51:03.433Z,14.83
2018-02-10T15:53:32.356Z,14.45
2018-02-10T15:56:00.067Z,14.75
2018-02-10T15:58:28.498Z,15.27
2018-02-10T16:00:56.091Z,15.57
2018-02-10T16:03:23.870Z,14.68
2018-02-10T16:05:51.496Z,13.73
2018-02-10T16:08:19.130Z,13.98
2018-02-10T16:10:48.239Z,14.87
2018-02-10T16:13:16.636Z,15.02
2018-02-10T16:15:44.321Z,14.50
2018-02-10T16:18:11.962Z,15.50
2018-02-10T16:20:39.591Z,14.95
2018-02-10T16:23:07.662Z,15.45
2018-02-10T16:25:35.374Z,14.00
2018-02-10T16:28:02.995Z,14.00
2018-02-10T16:30:30.603Z,14.20
2018-02-10T16:32:58.256Z,14.25
2018-02-10T16:35:26.622Z,14.30
2018-02-10T16:37:54.250Z,14.30
2018-02-10T16:40:21.920Z,14.20
2018-02-10T16:42:49.521Z,13.68
2018-02-10T16:45:17.149Z,13.85
2018-02-10T16:47:46.687Z,14.33
2018-02-10T16:50:14.324Z,13.88
2018-02-10T16:52:41.954Z,15.23
2018-02-10T16:55:09.586Z,14.65
2018-02-10T16:57:37.202Z,13.02
2018-02-10T17:00:04.874Z,13.50
2018-02-10T17:02:32.540Z,14.60
2018-02-10T17:05:00.950Z,12.93
2018-02-10T17:07:28.602Z,13.55
2018-02-10T17:09:56.264Z,13.30
2018-02-10T17:12:23.935Z,14.20
2018-02-10T17:14:52.575Z,13.17
2018-02-10T17:17:21.004Z,14.10
2018-02-10T17:19:48.626Z,14.65
2018-02-10T17:22:16.300Z,14.05
2018-02-10T17:24:43.957Z,14.00
2018-02-10T17:27:11.726Z,14.40
2018-02-10T17:29:39.339Z,13.77
2018-02-10T17:32:06.973Z,14.07
2018-02-10T17:34:34.626Z,13.85
2018-02-10T17:37:03.053Z,14.27
2018-02-10T17:39:30.739Z,14.02
2018-02-10T17:41:58.346Z,14.13
2018-02-10T17:44:25.970Z,14.43
2018-02-10T17:46:54.471Z,14.10
2018-02-10T17:49:22.109Z,14.80
2018-02-10T17:51:49.768Z,14.32
2018-02-10T17:54:17.396Z,14.13
2018-02-10T17:56:45.034Z,13.40
2018-02-10T17:59:12.678Z,14.00
2018-02-10T18:01:40.322Z,13.45
2018-02-10T18:04:07.937Z,14.57
2018-02-10T18:06:35.605Z,13.20
2018-02-10T18:09:03.297Z,14.40
2018-02-10T18:11:31.744Z,13.88
2018-02-10T18:13:59.423Z,13.95
2018-02-10T18:16:27.103Z,14.00
2018-02-10T18:18:54.737Z,13.47
2018-02-10T18:21:22.369Z,14.13
2018-02-10T18:23:50.766Z,14.65
2018-02-10T18:26:18.414Z,14.10
2018-02-10T18:28:46.023Z,14.65
2018-02-10T18:31:13.753Z,13.77
2018-02-10T18:33:42.191Z,14.77
2018-02-10T18:36:09.850Z,13.20
2018-02-10T18:38:37.462Z,13.07
2018-02-10T18:41:05.972Z,12.65
2018-02-10T18:43:34.319Z,13.55
2018-02-10T18:46:01.948Z,13.33
2018-02-10T18:48:29.643Z,13.55
2018-02-10T18:50:57.604Z,12.15
2018-02-10T18:53:25.226Z,13.07
2018-02-10T18:55:52.946Z,13.07
2018-02-10T18:58:20.562Z,13.23
2018-02-10T19:00:48.223Z,12.88
2018-02-10T19:03:15.844Z,13.73
2018-02-10T19:05:43.497Z,13.57
2018-02-10T19:08:12.079Z,14.15
2018-02-10T19:10:39.816Z,12.88
2018-02-10T19:13:07.528Z,14.15
2018-02-10T19:15:35.195Z,13.48
2018-02-10T19:18:02.851Z,13.40
2018-02-10T19:20:30.543Z,13.57
2018-02-10T19:22:58.944Z,13.50
2018-02-10T19:25:27.362Z,12.75
2018-02-10T19:27:55.006Z,14.55
2018-02-10T19:30:23.402Z,14.80
2018-02-10T19:32:51.025Z,13.95
2018-02-10T19:35:18.681Z,14.93
2018-02-10T19:37:46.286Z,14.07
2018-02-10T19:40:14.702Z,13.35
2018-02-10T19:42:42.572Z,12.77
2018-02-10T19:45:10.252Z,12.65
2018-02-10T19:47:37.861Z,13.60
2018-02-10T19:50:05.506Z,12.63
2018-02-10T19:52:33.148Z,13.85
2018-02-10T19:55:00.736Z,13.68
2018-02-10T19:57:28.774Z,13.80
2018-02-10T19:59:56.424Z,13.70
2018-02-10T20:02:24.856Z,14.07
2018-02-10T20:04:52.602Z,13.60
2018-02-10T20:07:20.264Z,12.90
2018-02-10T20:09:47.944Z,13.57
2018-02-10T20:12:15.584Z,13.13
2018-02-10T20:14:44.061Z,12.95
2018-02-10T20:17:12.619Z,12.03
2018-02-10T20:19:40.443Z,12.20
2018-02-10T20:22:08.152Z,12.57
2018-02-10T20:24:36.145Z,12.98
2018-02-10T20:27:04.026Z,13.48
2018-02-10T20:29:33.142Z,12.90
2018-02-10T20:32:01.606Z,12.00
2018-02-10T20:34:30.094Z,12.68
2018-02-10T20:36:58.597Z,12.57
2018-02-10T20:39:26.252Z,11.85
2018-02-10T20:41:54.697Z,12.55
2018-02-10T20:44:22.370Z,11.88
2018-02-10T20:46:50.041Z,12.35
2018-02-10T20:49:18.416Z,12.23
2018-02-10T20:51:46.065Z,12.90
2018-02-10T20:54:13.754Z,12.73
2018-02-10T20:56:41.737Z,11.40
2018-02-10T20:59:09.377Z,12.33
2018-02-10T21:01:37.537Z,12.90
2018-02-10T21:04:05.651Z,12.25
2018-02-10T21:06:33.268Z,12.07
2018-02-10T21:09:01.721Z,13.15
2018-02-10T21:11:29.371Z,12.93
2018-02-10T21:13:56.995Z,11.57
2018-02-10T21:16:25.413Z,12.98
2018-02-10T21:18:53.074Z,11.73
2018-02-10T21:21:20.686Z,11.55
2018-02-10T21:23:48.788Z,13.30
2018-02-10T21:26:16.467Z,11.37
2018-02-10T21:28:44.129Z,12.25
2018-02-10T21:31:11.791Z,13.45
2018-02-10T21:33:40.227Z,12.27
2018-02-10T21:36:07.864Z,12.05
2018-02-10T21:38:35.618Z,12.75
2018-02-10T21:41:03.278Z,12.27
2018-02-10T21:43:31.678Z,11.82
2018-02-10T21:45:59.475Z,12.55
2018-02-10T21:48:27.204Z,12.30
2018-02-10T21:50:54.970Z,12.80
2018-02-10T21:53:23.184Z,11.97
2018-02-10T21:55:50.947Z,12.37
2018-02-10T21:58:18.669Z,12.37
2018-02-10T22:14:33.216Z,12.65
2018-02-10T22:17:01.008Z,12.05
2018-02-10T22:19:28.738Z,13.25
2018-02-10T22:21:58.212Z,12.90
2018-02-10T22:24:26.089Z,13.10
2018-02-10T22:26:53.840Z,12.63
2018-02-10T22:29:21.700Z,12.23
2018-02-10T22:31:49.572Z,12.10
2018-02-10T22:34:17.437Z,11.48
2018-02-10T22:36:45.242Z,12.53
2018-02-10T22:39:13.213Z,13.03
2018-02-10T22:41:41.225Z,11.95
2018-02-10T22:44:09.158Z,12.30
2018-02-10T22:46:36.817Z,12.52
2018-02-10T22:49:04.555Z,13.15
2018-02-10T22:51:32.167Z,12.15
2018-02-10T22:53:59.795Z,11.80
2018-02-10T22:56:27.425Z,12.48
2018-02-10T22:58:56.818Z,13.15
2018-02-10T23:01:24.408Z,12.50
2018-02-10T23:03:52.799Z,12.80
2018-02-10T23:06:20.732Z,12.25
2018-02-10T23:08:48.494Z,12.43
2018-02-10T23:11:16.197Z,12.02
2018-02-10T23:13:44.616Z,12.23
2018-02-10T23:16:12.241Z,12.77
2018-02-10T23:18:39.899Z,12.50
2018-02-10T23:21:07.523Z,11.68
2018-02-10T23:23:35.202Z,12.63
2018-02-10T23:26:02.839Z,12.20
2018-02-10T23:28:30.576Z,13.20
2018-02-10T23:30:58.959Z,13.00
2018-02-10T23:33:27.373Z,12.55
2018-02-10T23:35:54.998Z,13.05
2018-02-10T23:38:22.659Z,13.07
2018-02-10T23:40:50.311Z,13.18
2018-02-10T23:43:17.939Z,12.45
2018-02-10T23:45:45.576Z,12.27
2018-02-10T23:48:14.002Z,12.48
2018-02-10T23:50:41.613Z,12.35
2018-02-10T23:53:09.248Z,12.70
2018-02-10T23:55:36.890Z,12.68
2018-02-10T23:58:04.498Z,13.23
